Time;durP1;ratioP1;P1;durP2;ratioP2;P2;SDS_P1;SDS_P2;PMS_P1;PMS_P2;Temp;Humidity;BMP_temperature;BMP_pressure;BME280_temperature;BME280_humidity;BME280_pressure;Samples;Min_cycle;Max_cycle;Signal;HPM_P1;HPM_P2
2022/06/25 00:02:07;;;;;;;8.60;4.38;;;;;;;18.11;82.90;99673.31;5072958;28;20044;-73
2022/06/25 00:07:20;;;;;;;8.40;4.68;;;;;;;17.65;83.85;99686.50;5072678;28;20099;-73
2022/06/25 00:09:47;;;;;;;9.05;4.82;;;;;;;17.71;83.42;99693.25;5072440;28;20052;-73
2022/06/25 00:12:32;;;;;;;8.63;4.93;;;;;;;17.60;84.48;99689.63;5072397;28;20049;-73
2022/06/25 00:15:00;;;;;;;8.13;4.32;;;;;;;17.59;84.26;99701.53;5073445;28;20106;-73
2022/06/25 00:17:29;;;;;;;11.27;4.70;;;;;;;17.46;85.53;99688.09;5072785;28;20044;-73
2022/06/25 00:19:57;;;;;;;8.93;4.65;;;;;;;17.51;85.37;99687.69;5072558;28;20047;-73
2022/06/25 00:22:24;;;;;;;9.57;5.00;;;;;;;17.51;85.07;99690.44;5072756;28;20044;-73
2022/06/25 00:24:52;;;;;;;8.70;4.70;;;;;;;17.55;85.69;99696.50;5072501;28;20052;-73
2022/06/25 00:27:19;;;;;;;11.45;4.57;;;;;;;17.44;86.00;99695.56;5072146;28;20055;-73
2022/06/25 00:29:47;;;;;;;9.63;4.45;;;;;;;17.62;85.20;99693.06;5072564;28;20051;-73
2022/06/25 00:32:15;;;;;;;8.48;4.38;;;;;;;17.66;85.31;99700.00;5072567;28;20055;-73
2022/06/25 00:34:44;;;;;;;8.85;4.40;;;;;;;17.72;85.29;99703.16;5072589;28;20101;-73
2022/06/25 00:37:11;;;;;;;8.07;4.25;;;;;;;17.70;85.61;99696.97;5072288;28;20056;-73
2022/06/25 00:39:39;;;;;;;9.35;4.60;;;;;;;17.64;86.66;99703.88;5072274;28;20048;-73
2022/06/25 00:42:09;;;;;;;9.82;4.53;;;;;;;17.69;85.94;99696.13;5072081;28;20055;-73
2022/06/25 00:44:37;;;;;;;8.82;4.57;;;;;;;17.54;86.93;99701.09;5075415;28;20091;-73
2022/06/25 00:47:05;;;;;;;9.77;4.60;;;;;;;17.54;86.94;99701.09;5075725;28;20060;-73
2022/06/25 00:49:33;;;;;;;8.65;4.82;;;;;;;17.52;87.13;99703.09;5075950;28;20411;-73
2022/06/25 00:52:05;;;;;;;8.10;4.38;;;;;;;17.50;87.42;99700.47;5075990;28;20051;-73
2022/06/25 00:54:36;;;;;;;10.30;4.40;;;;;;;17.51;87.47;99701.34;5076132;28;20045;-73
2022/06/25 00:57:06;;;;;;;10.20;4.60;;;;;;;17.34;88.32;99703.72;5076646;28;20075;-73
2022/06/25 00:59:38;;;;;;;8.65;4.50;;;;;;;17.26;88.93;99702.63;5075742;28;20479;-73
2022/06/25 01:02:06;;;;;;;10.00;4.90;;;;;;;17.14;89.04;99704.56;5077353;28;20048;-73
2022/06/25 01:04:33;;;;;;;11.40;4.60;;;;;;;17.00;89.82;99703.00;5075070;28;20037;-73
2022/06/25 01:07:02;;;;;;;8.30;4.70;;;;;;;17.09;89.63;99704.94;5075523;28;20522;-73
2022/06/25 01:09:30;;;;;;;9.02;4.82;;;;;;;16.98;89.80;99711.34;5075215;28;20049;-73
2022/06/25 01:11:57;;;;;;;9.88;4.97;;;;;;;16.91;90.28;99708.22;5075436;28;20053;-73
2022/06/25 01:14:25;;;;;;;9.85;4.72;;;;;;;16.97;90.43;99714.16;5075525;28;20049;-73
2022/06/25 01:16:52;;;;;;;9.43;4.70;;;;;;;17.09;89.74;99711.28;5070367;28;20442;-73
2022/06/25 01:19:20;;;;;;;8.75;4.50;;;;;;;17.17;89.53;99715.19;5055580;28;20040;-73
2022/06/25 01:21:47;;;;;;;9.93;4.90;;;;;;;17.22;89.39;99710.22;5054831;28;20041;-73
2022/06/25 01:24:16;;;;;;;9.13;4.38;;;;;;;17.30;88.88;99717.75;5054613;28;20045;-73
2022/06/25 01:26:44;;;;;;;9.52;4.40;;;;;;;17.30;88.64;99707.69;5054980;28;20151;-73
2022/06/25 01:29:11;;;;;;;11.30;5.43;;;;;;;17.31;88.64;99703.94;5055041;28;20540;-73
2022/06/25 01:31:39;;;;;;;10.57;5.72;;;;;;;17.31;88.63;99700.38;5054788;28;20063;-73
2022/06/25 01:34:06;;;;;;;10.02;4.75;;;;;;;17.35;88.75;99702.72;5055240;28;20045;-73
2022/06/25 01:36:33;;;;;;;8.48;4.63;;;;;;;17.33;88.70;99699.22;5055071;28;20041;-73
2022/06/25 01:39:01;;;;;;;9.95;4.55;;;;;;;17.14;90.21;99699.97;5062699;28;20048;-73
2022/06/25 01:41:31;;;;;;;9.45;4.88;;;;;;;17.05;91.26;99701.63;5074735;28;20044;-73
2022/06/25 01:43:58;;;;;;;8.65;4.50;;;;;;;17.10;90.51;99698.47;5074690;28;20495;-73
2022/06/25 01:46:26;;;;;;;9.18;4.88;;;;;;;17.19;89.85;99700.44;5074548;28;20056;-73
2022/06/25 01:48:53;;;;;;;8.43;4.60;;;;;;;17.08;90.30;99709.53;5074717;28;20060;-73
2022/06/25 01:51:21;;;;;;;8.63;4.85;;;;;;;17.16;89.86;99710.75;5074099;28;20072;-73
2022/06/25 01:53:49;;;;;;;11.88;5.00;;;;;;;17.24;89.11;99716.41;5074493;28;20052;-73
2022/06/25 01:56:16;;;;;;;8.40;4.57;;;;;;;17.27;88.90;99709.81;5074731;28;20122;-73
2022/06/25 01:58:45;;;;;;;13.77;5.03;;;;;;;17.23;89.27;99707.38;5074589;28;20090;-73
2022/06/25 02:01:13;;;;;;;10.07;4.90;;;;;;;17.22;89.39;99710.22;5074503;28;20055;-73
2022/06/25 02:03:40;;;;;;;9.07;4.70;;;;;;;17.20;89.54;99718.53;5074621;28;20094;-73
2022/06/25 02:06:08;;;;;;;8.02;4.47;;;;;;;17.20;89.64;99710.34;5074522;28;20106;-73
2022/06/25 02:08:36;;;;;;;9.20;4.43;;;;;;;17.18;89.13;99714.22;5074239;28;20086;-73
2022/06/25 02:11:05;;;;;;;9.23;4.80;;;;;;;17.22;88.86;99712.94;5074336;28;20101;-73
2022/06/25 02:13:33;;;;;;;10.10;4.65;;;;;;;17.22;88.97;99711.09;5074245;28;20040;-73
2022/06/25 02:16:02;;;;;;;10.82;5.03;;;;;;;17.13;89.51;99713.75;5074068;28;20048;-73
2022/06/25 02:18:30;;;;;;;8.77;4.50;;;;;;;17.13;89.43;99713.75;5074119;28;20050;-73
2022/06/25 02:20:57;;;;;;;9.00;4.68;;;;;;;17.09;90.16;99707.66;5074236;28;20051;-73
2022/06/25 02:23:25;;;;;;;9.05;4.60;;;;;;;17.09;89.65;99711.28;5074058;28;20045;-73
2022/06/25 02:25:52;;;;;;;9.52;4.43;;;;;;;17.12;89.87;99712.00;5073829;28;20052;-73
2022/06/25 02:28:20;;;;;;;13.88;5.10;;;;;;;17.06;89.85;99711.53;5073891;28;20053;-73
2022/06/25 02:30:48;;;;;;;8.68;4.85;;;;;;;17.03;90.55;99708.19;5073936;28;20048;-73
2022/06/25 02:33:17;;;;;;;8.55;4.88;;;;;;;17.00;90.33;99709.34;5073973;28;20049;-73
2022/06/25 02:35:45;;;;;;;8.15;4.65;;;;;;;17.01;90.50;99711.06;5073123;28;20060;-73
2022/06/25 02:38:13;;;;;;;8.80;4.60;;;;;;;17.03;90.68;99711.81;5073129;28;20498;-73
2022/06/25 02:40:40;;;;;;;9.30;4.90;;;;;;;17.00;91.01;99705.72;5073843;28;20048;-73
2022/06/25 02:43:08;;;;;;;9.43;4.80;;;;;;;16.95;91.16;99708.84;5073736;28;20441;-73
2022/06/25 02:45:36;;;;;;;9.40;4.47;;;;;;;16.93;91.03;99708.13;5072668;28;20399;-74
2022/06/25 02:48:04;;;;;;;9.13;5.05;;;;;;;16.94;91.17;99707.97;5071960;28;20509;-73
2022/06/25 02:50:33;;;;;;;9.00;4.65;;;;;;;16.95;90.84;99712.44;5072862;28;20490;-73
2022/06/25 02:53:00;;;;;;;9.57;4.95;;;;;;;16.93;91.21;99708.97;5073642;28;20510;-73
2022/06/25 03:00:56;;;;;;;9.30;5.07;;;;;;;16.85;91.54;99707.88;5031826;28;20111;-73
2022/06/25 03:03:24;;;;;;;12.52;5.13;;;;;;;16.86;91.67;99710.47;5031622;28;20065;-73
2022/06/25 03:05:53;;;;;;;13.90;5.28;;;;;;;16.92;91.12;99706.34;5030372;28;20054;-73
2022/06/25 03:08:20;;;;;;;10.75;5.05;;;;;;;16.91;91.08;99710.97;5031432;28;20076;-73
2022/06/25 03:10:48;;;;;;;10.32;5.22;;;;;;;16.89;91.53;99717.53;5031423;28;20056;-73
2022/06/25 03:13:15;;;;;;;12.40;5.53;;;;;;;16.93;91.53;99719.03;5031258;28;20080;-73
2022/06/25 03:15:43;;;;;;;10.30;5.43;;;;;;;16.98;91.18;99721.38;5031264;28;20053;-73
2022/06/25 03:18:10;;;;;;;11.00;5.43;;;;;;;17.00;91.59;99711.19;5031292;28;20054;-73
2022/06/25 03:20:38;;;;;;;10.45;5.18;;;;;;;17.08;90.52;99712.28;5030886;28;20107;-73
2022/06/25 03:23:07;;;;;;;10.57;5.47;;;;;;;17.09;90.54;99713.13;5031205;28;20045;-73
2022/06/25 03:25:35;;;;;;;9.73;5.10;;;;;;;17.11;90.72;99711.13;5030925;28;20099;-73
2022/06/25 03:28:02;;;;;;;9.52;5.10;;;;;;;17.12;90.59;99712.84;5031101;28;20041;-73
2022/06/25 03:30:30;;;;;;;13.27;5.93;;;;;;;17.24;89.58;99713.66;5031117;28;20053;-73
2022/06/25 03:32:57;;;;;;;12.15;5.63;;;;;;;17.32;89.10;99708.41;5031208;28;20107;-73
2022/06/25 03:35:25;;;;;;;11.70;5.53;;;;;;;17.41;88.31;99714.94;5030769;28;20052;-73
2022/06/25 03:37:52;;;;;;;11.77;5.30;;;;;;;17.42;88.52;99710.34;5051061;28;20411;-73
2022/06/25 03:40:21;;;;;;;10.77;5.15;;;;;;;17.44;88.57;99702.91;5072628;28;20075;-73
2022/06/25 03:42:49;;;;;;;10.40;5.47;;;;;;;17.48;88.49;99710.66;5072886;28;20045;-73
2022/06/25 03:45:16;;;;;;;8.80;5.20;;;;;;;17.51;88.65;99709.53;5073076;28;20067;-73
2022/06/25 03:47:49;;;;;;;12.02;5.93;;;;;;;17.58;87.71;99708.00;5072830;28;20068;-73
2022/06/25 03:50:17;;;;;;;11.80;5.57;;;;;;;17.61;87.81;99715.91;5073385;28;20059;-73
2022/06/25 03:52:45;;;;;;;11.30;5.65;;;;;;;17.65;87.72;99713.78;5072476;28;20066;-73
2022/06/25 03:55:13;;;;;;;9.10;5.20;;;;;;;17.73;87.36;99716.72;5072875;28;20044;-73
2022/06/25 03:57:42;;;;;;;10.00;5.28;;;;;;;17.74;87.39;99720.28;5072680;28;20469;-73
2022/06/25 04:00:11;;;;;;;10.15;5.55;;;;;;;17.77;87.31;99723.63;5072709;28;20052;-73
2022/06/25 04:02:38;;;;;;;10.88;5.60;;;;;;;17.88;86.96;99724.53;5072750;28;20126;-73
2022/06/25 04:05:06;;;;;;;10.30;5.60;;;;;;;17.92;87.41;99724.13;5072494;28;20044;-73
2022/06/25 04:07:34;;;;;;;11.70;5.40;;;;;;;17.93;87.19;99730.44;5072634;28;20045;-73
2022/06/25 04:10:01;;;;;;;9.57;5.20;;;;;;;18.08;86.72;99720.91;5072862;28;20048;-73
2022/06/25 04:12:29;;;;;;;11.48;5.32;;;;;;;18.27;86.44;99727.44;5072589;28;20076;-73
2022/06/25 04:14:58;;;;;;;9.52;5.50;;;;;;;18.10;87.89;99723.50;5072630;28;20044;-73
2022/06/25 04:17:26;;;;;;;11.02;5.80;;;;;;;18.30;86.91;99718.13;5072633;28;20040;-73
2022/06/25 04:19:53;;;;;;;10.23;5.40;;;;;;;18.28;87.33;99725.59;5075592;28;20120;-73
2022/06/25 04:22:21;;;;;;;11.50;5.70;;;;;;;18.29;87.86;99719.13;5076321;28;20044;-73
2022/06/25 04:24:49;;;;;;;10.02;6.10;;;;;;;18.35;88.56;99726.75;5076286;28;20044;-73
2022/06/25 04:29:59;;;;;;;11.10;5.60;;;;;;;18.46;87.98;99728.53;5078075;28;20052;-73
2022/06/25 04:32:26;;;;;;;9.90;5.50;;;;;;;18.61;87.18;99727.09;5075881;28;20051;-73
2022/06/25 04:34:54;;;;;;;9.95;5.70;;;;;;;18.59;87.75;99734.59;5076296;28;20071;-73
2022/06/25 04:37:21;;;;;;;11.38;5.57;;;;;;;18.62;87.77;99744.38;5076150;28;20048;-73
2022/06/25 04:39:49;;;;;;;10.85;6.15;;;;;;;18.54;88.33;99732.25;5076015;28;20044;-73
2022/06/25 04:42:16;;;;;;;14.32;5.75;;;;;;;18.75;87.59;99734.03;5075918;28;20109;-73
2022/06/25 04:44:44;;;;;;;14.52;5.20;;;;;;;18.98;86.14;99736.53;5076218;28;20051;-73
2022/06/25 04:47:13;;;;;;;11.38;5.13;;;;;;;19.19;85.49;99736.41;5075418;28;20064;-73
2022/06/25 04:49:40;;;;;;;12.00;5.38;;;;;;;19.24;85.52;99739.56;5075884;28;20052;-73
2022/06/25 04:52:08;;;;;;;10.30;5.45;;;;;;;19.22;85.75;99741.59;5075919;28;20055;-73
2022/06/25 04:54:36;;;;;;;9.38;5.40;;;;;;;19.07;87.16;99741.16;5075794;28;20048;-73
2022/06/25 04:57:03;;;;;;;9.23;5.32;;;;;;;19.20;86.79;99745.47;5075888;28;20048;-73
2022/06/25 04:59:31;;;;;;;11.40;5.70;;;;;;;19.35;86.27;99745.88;5075789;28;20041;-73
2022/06/25 05:01:58;;;;;;;11.05;5.43;;;;;;;19.35;86.42;99752.22;5075355;28;20499;-73
2022/06/25 05:04:27;;;;;;;9.52;5.53;;;;;;;19.61;85.40;99754.34;5075683;28;20053;-73
2022/06/25 05:06:55;;;;;;;9.60;5.10;;;;;;;19.69;85.54;99759.94;5075575;28;20099;-73
2022/06/25 05:09:23;;;;;;;8.75;5.28;;;;;;;19.75;85.33;99757.63;5075804;28;20498;-73
2022/06/25 05:11:51;;;;;;;9.27;5.25;;;;;;;19.94;84.40;99751.25;5073236;28;20450;-73
2022/06/25 05:14:18;;;;;;;12.02;5.32;;;;;;;20.04;83.83;99751.22;5072054;28;20055;-72
2022/06/25 05:16:46;;;;;;;11.13;5.30;;;;;;;19.93;83.82;99750.41;5071437;28;20055;-73
2022/06/25 05:19:14;;;;;;;9.73;5.22;;;;;;;20.12;82.85;99754.06;5071913;28;20658;-73
2022/06/25 05:21:43;;;;;;;10.73;5.10;;;;;;;20.14;82.26;99752.03;5071977;28;20498;-74
2022/06/25 05:24:10;;;;;;;10.02;5.25;;;;;;;20.12;82.50;99754.06;5071980;28;20048;-74
2022/06/25 05:26:38;;;;;;;9.82;4.95;;;;;;;20.15;82.31;99753.75;5071671;28;20048;-74
2022/06/25 05:29:05;;;;;;;8.77;4.90;;;;;;;20.33;81.34;99755.72;5071044;28;20075;-74
2022/06/25 05:31:33;;;;;;;8.75;5.10;;;;;;;20.36;80.13;99752.66;5071581;28;20494;-75
2022/06/25 05:34:00;;;;;;;8.70;4.80;;;;;;;20.55;79.28;99754.44;5071691;28;20170;-74
2022/06/25 05:36:28;;;;;;;10.88;4.88;;;;;;;20.53;78.66;99757.31;5071642;28;20106;-73
2022/06/25 05:38:58;;;;;;;9.82;4.75;;;;;;;20.54;78.77;99764.53;5063981;28;20052;-73
2022/06/25 05:41:25;;;;;;;9.35;4.45;;;;;;;20.69;78.52;99764.88;5050930;28;20775;-74
2022/06/25 05:43:53;;;;;;;10.68;4.68;;;;;;;20.82;79.06;99764.56;5051427;28;20049;-74
2022/06/25 05:46:20;;;;;;;9.13;4.78;;;;;;;20.87;78.44;99769.59;5050938;28;20059;-75
2022/06/25 05:48:47;;;;;;;11.43;4.88;;;;;;;20.92;78.13;99769.09;5051631;28;20044;-75
2022/06/25 05:51:15;;;;;;;10.43;4.80;;;;;;;21.01;78.04;99772.81;5051190;28;20385;-74
2022/06/25 05:53:42;;;;;;;12.70;4.80;;;;;;;21.15;79.09;99771.41;5051124;28;20455;-74
2022/06/25 05:56:11;;;;;;;8.65;4.70;;;;;;;21.19;78.83;99772.81;5051207;28;20056;-74
2022/06/25 05:58:39;;;;;;;9.63;4.88;;;;;;;21.23;79.22;99782.44;5051065;28;20075;-74
2022/06/25 06:01:06;;;;;;;9.68;5.00;;;;;;;21.23;78.87;99783.34;5050884;28;20155;-74
2022/06/25 06:03:34;;;;;;;9.05;5.10;;;;;;;21.37;79.35;99775.53;5051169;28;20052;-72
2022/06/25 06:06:01;;;;;;;12.00;5.00;;;;;;;21.43;78.09;99777.66;5050731;28;20045;-74
2022/06/25 06:08:29;;;;;;;9.50;4.68;;;;;;;21.50;76.60;99772.41;5059255;28;20048;-75
2022/06/25 06:10:56;;;;;;;9.52;4.90;;;;;;;21.56;77.50;99771.75;5067709;28;20056;-72
2022/06/25 06:13:25;;;;;;;9.77;4.80;;;;;;;21.63;77.89;99780.22;5070959;28;20051;-73
2022/06/25 06:15:53;;;;;;;9.48;4.80;;;;;;;21.70;77.78;99775.84;5070402;28;20405;-73
2022/06/25 06:18:20;;;;;;;7.25;4.32;;;;;;;21.77;76.95;99776.91;5064313;28;20049;-73
2022/06/25 06:20:48;;;;;;;8.77;4.35;;;;;;;21.90;75.89;99776.50;5061411;28;20041;-74
2022/06/25 06:23:15;;;;;;;8.90;4.30;;;;;;;21.93;74.55;99767.91;5059372;28;20052;-74
2022/06/25 06:25:43;;;;;;;9.02;4.28;;;;;;;21.95;74.52;99762.25;5061129;28;20064;-75
2022/06/25 06:28:10;;;;;;;8.65;4.30;;;;;;;22.02;74.49;99767.97;5064145;28;20041;-75
2022/06/25 06:30:39;;;;;;;8.18;3.97;;;;;;;22.10;72.53;99768.88;5067148;28;20406;-71
2022/06/25 06:33:06;;;;;;;9.73;4.45;;;;;;;22.14;72.65;99769.41;5055856;28;20045;-72
2022/06/25 06:35:34;;;;;;;9.93;4.40;;;;;;;22.24;72.80;99767.41;5050324;28;20052;-72
2022/06/25 06:38:02;;;;;;;10.90;4.82;;;;;;;22.26;72.53;99772.72;5050464;28;20051;-74
2022/06/25 06:40:29;;;;;;;8.63;4.35;;;;;;;22.38;72.77;99767.81;5063522;28;20064;-72
2022/06/25 06:42:57;;;;;;;11.18;3.90;;;;;;;22.47;72.29;99771.50;5049064;28;20098;-72
2022/06/25 06:45:24;;;;;;;8.30;3.80;;;;;;;22.54;71.14;99770.66;5050205;28;20052;-73
2022/06/25 06:47:53;;;;;;;6.90;3.72;;;;;;;22.55;70.06;99772.38;5050180;28;20067;-74
2022/06/25 06:50:21;;;;;;;7.68;3.75;;;;;;;22.59;70.17;99767.41;5050126;28;20048;-74
2022/06/25 06:52:48;;;;;;;7.88;3.70;;;;;;;22.64;70.68;99769.63;5049832;28;20045;-74
2022/06/25 06:55:15;;;;;;;9.90;3.70;;;;;;;22.71;69.89;99757.81;5050207;28;20049;-73
2022/06/25 06:57:43;;;;;;;6.78;3.70;;;;;;;22.82;67.30;99766.78;5049834;28;20103;-74
2022/06/25 07:00:11;;;;;;;8.02;3.50;;;;;;;22.89;67.53;99767.84;5049915;28;20508;-74
2022/06/25 07:02:39;;;;;;;8.95;3.50;;;;;;;22.98;67.66;99769.56;5049904;28;20496;-75
2022/06/25 07:05:09;;;;;;;7.57;3.58;;;;;;;23.05;67.26;99761.50;5049665;28;20408;-75
2022/06/25 07:07:36;;;;;;;6.80;3.35;;;;;;;23.20;64.53;99766.34;5049910;28;20403;-74
2022/06/25 07:10:04;;;;;;;6.53;3.60;;;;;;;23.17;65.30;99769.44;5049958;28;20041;-75
2022/06/25 07:12:32;;;;;;;7.40;3.40;;;;;;;23.25;65.74;99772.22;5049363;28;20045;-73
2022/06/25 07:14:59;;;;;;;7.20;3.80;;;;;;;23.40;65.44;99767.75;5049689;28;20056;-75
2022/06/25 07:17:27;;;;;;;6.75;3.28;;;;;;;23.44;63.31;99769.13;5049403;28;20053;-75
2022/06/25 07:19:54;;;;;;;5.43;2.75;;;;;;;23.64;61.76;99773.41;5054526;28;20048;-73
2022/06/25 07:22:23;;;;;;;5.28;2.90;;;;;;;23.66;61.50;99771.34;5069730;28;20044;-73
2022/06/25 07:24:52;;;;;;;4.20;2.80;;;;;;;23.76;61.52;99768.41;5069388;28;20080;-72
2022/06/25 07:27:19;;;;;;;4.07;2.72;;;;;;;23.78;60.76;99772.72;5068808;28;20052;-72
2022/06/25 07:29:47;;;;;;;4.22;2.78;;;;;;;23.69;59.97;99769.13;5069336;28;20679;-72
2022/06/25 07:32:14;;;;;;;6.22;3.00;;;;;;;23.82;60.25;99770.47;5064572;28;20060;-72
2022/06/25 07:34:42;;;;;;;6.60;3.10;;;;;;;23.92;60.17;99765.66;5059795;28;20048;-72
2022/06/25 07:37:10;;;;;;;6.53;3.25;;;;;;;23.94;59.64;99762.69;5057853;28;20446;-72
2022/06/25 07:39:38;;;;;;;6.15;3.20;;;;;;;24.01;59.48;99759.09;5060133;28;20044;-72
2022/06/25 07:42:06;;;;;;;8.30;2.90;;;;;;;24.04;58.52;99757.88;5059010;28;20056;-72
2022/06/25 07:44:34;;;;;;;6.18;3.15;;;;;;;24.13;58.79;99759.59;5059232;28;20047;-72
2022/06/25 07:47:01;;;;;;;4.90;2.90;;;;;;;24.25;58.61;99756.44;5069160;28;20523;-72
2022/06/25 07:49:29;;;;;;;6.28;2.90;;;;;;;24.24;57.50;99763.00;5069396;28;20775;-73
2022/06/25 07:51:59;;;;;;;7.13;2.80;;;;;;;24.26;55.45;99755.41;5068420;28;20506;-73
2022/06/25 07:54:28;;;;;;;4.88;2.75;;;;;;;24.51;55.90;99755.31;5073324;28;20106;-74
2022/06/25 07:56:58;;;;;;;4.55;2.65;;;;;;;24.53;55.45;99753.22;5073067;28;20056;-73
2022/06/25 07:59:25;;;;;;;6.55;2.83;;;;;;;24.55;54.95;99749.22;5073539;28;20051;-73
2022/06/25 08:01:53;;;;;;;4.35;2.50;;;;;;;24.55;52.77;99742.88;5073410;28;20122;-73
2022/06/25 08:04:20;;;;;;;4.70;2.78;;;;;;;24.59;53.12;99747.81;5072889;28;20052;-74
2022/06/25 08:06:48;;;;;;;6.03;3.00;;;;;;;24.62;52.75;99741.09;5072122;28;20051;-74
2022/06/25 08:09:15;;;;;;;5.57;2.88;;;;;;;24.63;50.84;99744.69;5055067;28;20067;-74
2022/06/25 08:11:43;;;;;;;5.63;2.70;;;;;;;24.85;51.25;99752.22;5056047;28;20098;-73
2022/06/25 08:14:12;;;;;;;5.50;2.88;;;;;;;24.87;51.06;99758.41;5062330;28;20040;-73
2022/06/25 08:16:39;;;;;;;4.18;2.70;;;;;;;24.86;47.12;99747.53;5062036;28;20040;-73
2022/06/25 08:19:07;;;;;;;6.18;2.92;;;;;;;24.95;47.50;99751.97;5055152;28;20048;-73
2022/06/25 08:21:35;;;;;;;4.60;2.72;;;;;;;25.00;48.69;99749.53;5056618;28;20052;-73
2022/06/25 08:24:02;;;;;;;5.63;2.90;;;;;;;24.97;48.19;99749.91;5056634;28;20045;-73
2022/06/25 08:26:30;;;;;;;5.38;2.88;;;;;;;25.03;49.17;99749.16;5056303;28;20045;-73
2022/06/25 08:28:57;;;;;;;8.02;2.70;;;;;;;25.14;48.61;99747.00;5056411;28;20045;-73
2022/06/25 08:31:26;;;;;;;10.35;3.15;;;;;;;25.25;48.80;99745.72;5056059;28;20045;-73
2022/06/25 08:33:54;;;;;;;5.07;2.88;;;;;;;25.21;47.28;99749.91;5056106;28;20041;-73
2022/06/25 08:36:22;;;;;;;5.55;2.95;;;;;;;25.22;47.80;99744.16;5056289;28;20045;-73
2022/06/25 08:38:49;;;;;;;5.28;2.90;;;;;;;25.31;47.34;99751.38;5062467;28;20090;-73
2022/06/25 08:41:17;;;;;;;7.32;2.70;;;;;;;25.44;48.06;99747.13;5075049;28;20051;-73
2022/06/25 08:43:44;;;;;;;4.88;2.80;;;;;;;25.38;45.50;99751.47;5075932;28;20119;-73
2022/06/25 08:46:12;;;;;;;5.10;2.90;;;;;;;25.39;46.52;99747.66;5055604;28;20581;-74
2022/06/25 08:48:44;;;;;;;5.22;2.97;;;;;;;25.50;47.75;99738.09;5056652;28;20049;-74
2022/06/25 08:51:12;;;;;;;5.32;3.10;;;;;;;25.57;48.15;99733.53;5056481;28;20045;-74
2022/06/25 08:53:39;;;;;;;5.25;2.70;;;;;;;25.66;48.37;99745.41;5055500;28;20442;-74
2022/06/25 08:56:08;;;;;;;5.75;2.90;;;;;;;25.67;48.20;99743.47;5056001;28;20045;-74
2022/06/25 08:58:37;;;;;;;7.13;2.92;;;;;;;25.68;47.20;99740.53;5055824;28;20558;-74
2022/06/25 09:01:04;;;;;;;6.50;2.78;;;;;;;25.87;47.38;99747.44;5055787;28;20402;-74
2022/06/25 09:03:32;;;;;;;5.90;2.97;;;;;;;25.82;46.85;99746.25;5056726;28;20040;-73
2022/06/25 09:06:13;;;;;;;7.25;3.10;;;;;;;25.92;46.84;99741.34;5074899;28;20048;-73
2022/06/25 09:08:42;;;;;;;8.05;3.10;;;;;;;25.86;46.58;99747.59;5074750;28;20417;-74
2022/06/25 09:11:10;;;;;;;6.47;2.85;;;;;;;25.90;46.12;99751.69;5075034;28;20041;-72
2022/06/25 09:13:37;;;;;;;5.07;2.83;;;;;;;25.92;45.54;99749.63;5075524;28;20045;-73
2022/06/25 09:16:05;;;;;;;6.28;2.80;;;;;;;25.92;45.54;99744.09;5075673;28;20044;-72
2022/06/25 09:18:34;;;;;;;9.23;3.00;;;;;;;26.01;45.57;99750.38;5075634;28;20130;-72
2022/06/25 09:21:05;;;;;;;11.43;3.20;;;;;;;25.95;45.45;99742.84;5065773;28;20135;-72
2022/06/25 09:23:34;;;;;;;6.03;2.95;;;;;;;26.01;46.12;99742.09;5065395;28;20032;-72
2022/06/25 09:26:03;;;;;;;5.90;3.03;;;;;;;26.15;46.53;99745.91;5063364;28;20044;-72
2022/06/25 09:28:32;;;;;;;5.55;2.90;;;;;;;26.18;46.12;99748.31;5062633;28;20044;-72
2022/06/25 09:31:02;;;;;;;6.00;2.90;;;;;;;26.25;46.88;99743.72;5064041;28;20068;-73
2022/06/25 09:33:30;;;;;;;6.10;3.00;;;;;;;26.17;44.38;99741.94;5062501;28;20047;-72
2022/06/25 09:35:58;;;;;;;6.35;3.00;;;;;;;26.11;45.44;99736.28;5063562;28;20045;-73
2022/06/25 09:38:27;;;;;;;6.35;2.90;;;;;;;26.34;44.82;99738.97;5064832;28;20053;-73
2022/06/25 09:40:56;;;;;;;5.57;2.80;;;;;;;26.30;44.30;99741.25;5063004;28;20049;-73
2022/06/25 09:43:25;;;;;;;5.43;2.83;;;;;;;26.40;44.15;99740.13;5062894;28;20159;-73
2022/06/25 09:45:54;;;;;;;5.38;3.00;;;;;;;26.26;44.23;99742.69;5062499;28;20171;-73
2022/06/25 09:48:22;;;;;;;5.78;2.65;;;;;;;26.52;44.29;99748.78;5062905;28;20041;-72
2022/06/25 09:51:05;;;;;;;5.72;3.05;;;;;;;26.55;45.18;99740.09;5064431;28;20040;-72
2022/06/25 09:53:35;;;;;;;7.13;3.05;;;;;;;26.55;45.27;99740.94;5063676;28;20091;-72
2022/06/25 09:56:03;;;;;;;5.72;3.10;;;;;;;26.32;44.21;99738.31;5062617;28;20051;-72
2022/06/25 09:58:32;;;;;;;8.52;3.30;;;;;;;26.43;43.31;99734.19;5062306;28;20045;-73
2022/06/25 10:01:00;;;;;;;6.45;3.10;;;;;;;26.65;43.85;99737.00;5063120;28;20044;-72
2022/06/25 10:03:28;;;;;;;4.97;2.72;;;;;;;26.78;44.15;99726.09;5054027;28;20562;-72
2022/06/25 10:05:56;;;;;;;5.45;2.97;;;;;;;26.96;43.96;99738.66;5053945;28;20040;-72
2022/06/25 10:08:25;;;;;;;4.53;2.90;;;;;;;27.06;43.16;99724.50;5054257;28;20051;-72
2022/06/25 10:10:56;;;;;;;7.50;3.00;;;;;;;27.02;42.89;99726.78;5054328;28;20056;-73
2022/06/25 10:13:24;;;;;;;4.95;2.88;;;;;;;26.93;42.15;99716.91;5055826;28;20045;-72
2022/06/25 10:15:53;;;;;;;7.63;3.22;;;;;;;26.78;43.09;99717.78;5053190;28;20128;-72
2022/06/25 10:18:21;;;;;;;7.00;2.85;;;;;;;26.80;43.79;99712.03;5054160;28;20482;-72
2022/06/25 10:20:49;;;;;;;5.93;2.92;;;;;;;27.08;44.58;99703.81;5058473;28;20415;-73
2022/06/25 10:23:16;;;;;;;9.90;3.20;;;;;;;27.12;43.15;99726.47;5061966;28;20049;-73
2022/06/25 10:25:44;;;;;;;4.90;2.90;;;;;;;26.86;41.80;99719.59;5062629;28;20067;-73
2022/06/25 10:28:15;;;;;;;8.50;3.10;;;;;;;26.93;42.35;99714.13;5066834;28;20070;-72
2022/06/25 10:30:47;;;;;;;5.60;3.03;;;;;;;27.02;42.60;99708.28;5062147;28;20045;-74
2022/06/25 10:33:17;;;;;;;6.55;2.70;;;;;;;27.09;42.88;99700.00;5061349;28;20072;-73
2022/06/25 10:35:45;;;;;;;5.95;2.85;;;;;;;27.12;42.92;99712.63;5064870;28;20051;-73
2022/06/25 10:38:16;;;;;;;6.35;3.03;;;;;;;26.95;42.01;99704.59;5064834;28;20067;-73
2022/06/25 10:40:52;;;;;;;4.85;3.00;;;;;;;26.96;42.44;99699.88;5064080;28;20040;-74
2022/06/25 10:43:45;;;;;;;4.57;3.00;;;;;;;27.16;42.16;99703.72;5065660;28;20044;-74
2022/06/25 10:46:31;;;;;;;5.13;2.97;;;;;;;26.88;42.24;99707.28;5067744;28;20063;-74
2022/06/25 10:49:04;;;;;;;4.10;2.90;;;;;;;26.83;43.24;99701.44;5070627;28;20079;-74
2022/06/25 10:51:41;;;;;;;6.55;2.90;;;;;;;26.83;43.15;99695.91;5070174;28;20566;-74
2022/06/25 10:54:14;;;;;;;4.35;2.80;;;;;;;26.91;42.34;99697.69;5071568;28;20058;-73
2022/06/25 10:56:46;;;;;;;4.35;2.80;;;;;;;26.92;42.85;99702.19;5071417;28;20507;-74
2022/06/25 10:59:48;;;;;;;5.40;2.90;;;;;;;26.60;42.33;99696.06;5065254;28;20066;-73
2022/06/25 11:02:18;;;;;;;6.53;2.88;;;;;;;26.64;43.33;99691.84;5061258;28;20090;-73
2022/06/25 11:04:55;;;;;;;7.53;2.90;;;;;;;26.84;43.10;99691.22;5059184;28;20048;-74
2022/06/25 11:07:25;;;;;;;6.85;2.97;;;;;;;27.19;43.03;99694.13;5060918;28;20040;-74
2022/06/25 11:09:54;;;;;;;10.35;3.03;;;;;;;26.90;41.56;99685.78;5058463;28;20442;-74
2022/06/25 11:12:21;;;;;;;4.97;2.90;;;;;;;27.08;41.84;99675.28;5058707;28;20045;-73
2022/06/25 11:14:59;;;;;;;6.35;3.10;;;;;;;27.07;40.45;99692.97;5058382;28;20040;-73
2022/06/25 11:17:26;;;;;;;7.03;3.00;;;;;;;26.96;41.93;99686.03;5060871;28;20041;-74
2022/06/25 11:19:55;;;;;;;6.28;2.90;;;;;;;27.18;41.93;99687.75;5057835;28;20102;-74
2022/06/25 11:22:22;;;;;;;6.95;3.05;;;;;;;27.43;41.34;99684.53;5059786;28;20043;-73
2022/06/25 11:30:21;;;;;;;7.20;3.25;;;;;;;27.50;41.89;99690.16;5059526;28;20170;-73
2022/06/25 11:32:50;;;;;;;6.32;2.80;;;;;;;27.51;41.77;99683.56;5069184;28;20438;-74
2022/06/25 11:35:17;;;;;;;6.03;2.97;;;;;;;27.67;41.50;99684.31;5068705;28;20117;-74
2022/06/25 11:37:44;;;;;;;5.25;3.00;;;;;;;27.74;41.91;99676.88;5069452;28;20049;-74
2022/06/25 11:40:16;;;;;;;7.13;2.80;;;;;;;28.05;41.17;99670.91;5069176;28;20537;-74
2022/06/25 11:42:44;;;;;;;8.60;3.00;;;;;;;27.64;39.75;99687.47;5069585;28;20051;-74
2022/06/25 11:45:11;;;;;;;4.28;2.70;;;;;;;27.61;40.03;99686.00;5069385;28;20411;-74
2022/06/25 11:47:40;;;;;;;4.15;2.78;;;;;;;27.75;40.64;99682.22;5069168;28;20060;-74
2022/06/25 11:50:11;;;;;;;5.05;2.75;;;;;;;27.76;40.86;99678.41;5068988;28;20662;-74
2022/06/25 11:52:42;;;;;;;6.65;2.75;;;;;;;27.97;41.05;99686.84;5069311;28;20537;-75
2022/06/25 11:55:11;;;;;;;4.05;2.60;;;;;;;28.02;40.54;99681.53;5069906;28;20452;-75